Welcome to the New NWS' Forecast!
Most changes are behind the scenes, but click here for differences you might notice.

Terminal Aerodrome Forecast (TAF)

Issued by National Weather Service (NWS)

                            
000
FTUS42 KKEY 171752
TAFMTH
TAF
KMTH 171752Z 1718/1818 10011G18KT P6SM FEW025
     FM180000 08009KT P6SM SCT025=